McCaulley, Texas
Current Conditions -  °F | °C
As of 9:15 AM on Wednesday 26 Nov 2014 (Local Time) from KSWW Reporting Station
Clear Clear  
Wind Chill: 43°   Ceiling: Unl
Heat Index: 49°   Visibility: 10mi
Dew Point: 23°   Wind: 16mph
Humidity: 35%   Direction: 360°N
Pressure: 30.25"   Gusts: 21mph
Location:  32.78°N, 100.21°W
Report Text: KSWW 261515Z AUTO 36014G18KT 10SM CLR 10/M05 A3025 RMK AO2 T00951052
Loading
Personal Weather Stations






























Interactive Weather Map New forecast layout! Learn more

10-Day Weather Forecast

Advertisements
Track Severe Weather on mobile